Time;durP1;ratioP1;P1;durP2;ratioP2;P2;SDS_P1;SDS_P2;PMS_P1;PMS_P2;Temp;Humidity;BMP_temperature;BMP_pressure;BME280_temperature;BME280_humidity;BME280_pressure;Samples;Min_cycle;Max_cycle;Signal;HPM_P1;HPM_P2
2023/05/23 00:02:14;;;;;;;6.32;2.45;;;13.70;99.90;;;;;;5091611;28;20246;-78
2023/05/23 00:04:45;;;;;;;8.88;2.70;;;13.80;99.90;;;;;;5093082;28;20647;-78
2023/05/23 00:07:18;;;;;;;6.60;2.65;;;13.90;99.90;;;;;;5094225;28;20200;-80
2023/05/23 00:09:49;;;;;;;8.25;2.22;;;14.00;99.90;;;;;;5084069;28;20203;-79
2023/05/23 00:12:21;;;;;;;7.45;2.50;;;14.20;99.90;;;;;;5083557;28;20195;-80
2023/05/23 00:14:52;;;;;;;7.28;2.40;;;14.30;99.90;;;;;;5091449;28;20697;-81
2023/05/23 00:17:24;;;;;;;7.95;3.25;;;14.40;99.90;;;;;;5094071;28;20202;-79
2023/05/23 00:19:56;;;;;;;8.30;2.40;;;14.50;99.90;;;;;;5089049;28;20304;-82
2023/05/23 00:22:29;;;;;;;6.55;2.28;;;14.60;99.90;;;;;;5094021;28;20192;-80
2023/05/23 00:25:00;;;;;;;6.40;2.22;;;14.70;99.90;;;;;;5092234;28;20188;-79
2023/05/23 00:27:32;;;;;;;6.55;2.30;;;14.80;99.90;;;;;;5089305;28;20196;-79
2023/05/23 00:30:03;;;;;;;9.43;2.53;;;15.00;99.90;;;;;;5090488;28;20569;-80
2023/05/23 00:32:34;;;;;;;9.13;2.40;;;15.10;99.90;;;;;;5091476;28;20202;-80
2023/05/23 00:35:06;;;;;;;6.95;2.20;;;15.10;99.90;;;;;;5092852;28;20659;-79
2023/05/23 00:37:39;;;;;;;4.68;2.03;;;15.20;99.90;;;;;;5080857;28;20211;-79
2023/05/23 00:40:15;;;;;;;8.30;2.35;;;15.30;99.90;;;;;;5093949;28;20214;-78
2023/05/23 00:42:47;;;;;;;8.60;2.00;;;15.40;99.90;;;;;;5093632;28;20193;-79
2023/05/23 00:45:25;;;;;;;8.65;2.72;;;15.40;99.90;;;;;;5076726;28;20215;-80
2023/05/23 00:47:58;;;;;;;5.05;2.10;;;15.50;99.90;;;;;;5078919;28;20199;-79
2023/05/23 00:50:30;;;;;;;7.00;2.28;;;15.60;99.90;;;;;;5091157;28;20294;-80
2023/05/23 00:53:04;;;;;;;7.40;2.03;;;15.70;99.90;;;;;;5092439;28;20188;-79
2023/05/23 00:55:35;;;;;;;6.72;1.73;;;15.70;99.90;;;;;;5093400;28;20267;-78
2023/05/23 00:58:07;;;;;;;6.55;2.10;;;15.90;99.90;;;;;;5080595;28;20195;-78
2023/05/23 01:00:38;;;;;;;5.88;2.03;;;15.90;99.90;;;;;;5086488;28;20192;-80
2023/05/23 01:03:15;;;;;;;5.05;2.00;;;16.10;99.90;;;;;;5090364;28;20204;-81
2023/05/23 01:05:46;;;;;;;8.65;2.10;;;16.20;99.90;;;;;;5093359;28;20187;-81
2023/05/23 01:08:23;;;;;;;12.60;6.50;;;16.30;99.90;;;;;;5093518;28;20188;-81
2023/05/23 01:10:55;;;;;;;12.05;3.15;;;16.50;99.90;;;;;;5091561;28;20204;-75
2023/05/23 01:13:32;;;;;;;9.73;3.90;;;16.50;99.90;;;;;;5091343;28;20572;-80
2023/05/23 01:16:09;;;;;;;7.70;2.60;;;16.60;99.90;;;;;;5092213;28;20192;-76
2023/05/23 01:18:42;;;;;;;5.30;2.05;;;16.70;99.90;;;;;;5081031;28;20219;-79
2023/05/23 01:21:18;;;;;;;11.93;2.33;;;16.80;99.90;;;;;;5092937;28;20184;-78
2023/05/23 01:24:35;;;;;;;8.10;1.95;;;16.80;99.90;;;;;;5090013;28;20200;-79
2023/05/23 01:27:21;;;;;;;5.55;2.35;;;16.90;99.90;;;;;;5092948;28;20275;-80
2023/05/23 01:29:58;;;;;;;6.90;2.13;;;16.90;99.90;;;;;;5091953;28;20617;-81
2023/05/23 01:32:30;;;;;;;5.80;1.70;;;17.00;99.90;;;;;;5092616;28;20285;-80
2023/05/23 01:35:03;;;;;;;5.78;2.30;;;17.20;99.90;;;;;;5090246;28;20193;-79
2023/05/23 01:37:34;;;;;;;5.25;1.75;;;17.20;99.90;;;;;;5090172;28;20200;-80
2023/05/23 01:40:05;;;;;;;8.00;2.00;;;17.30;99.90;;;;;;5086722;28;20220;-82
2023/05/23 01:42:36;;;;;;;9.38;1.80;;;17.40;99.90;;;;;;5086775;28;20188;-80
2023/05/23 01:45:11;;;;;;;7.30;1.85;;;17.40;99.90;;;;;;5090871;28;20200;-80
2023/05/23 01:47:43;;;;;;;7.93;1.77;;;17.50;99.90;;;;;;5091061;28;20219;-81
2023/05/23 01:50:15;;;;;;;4.05;1.80;;;17.50;99.90;;;;;;5089752;28;20204;-79
2023/05/23 01:52:47;;;;;;;6.18;1.50;;;17.50;99.90;;;;;;5087992;28;20196;-81
2023/05/23 01:55:21;;;;;;;6.03;1.63;;;17.50;99.90;;;;;;5091658;28;20640;-81
2023/05/23 01:57:55;;;;;;;7.88;2.50;;;17.50;99.90;;;;;;5091035;28;20192;-80
2023/05/23 02:00:28;;;;;;;6.38;2.40;;;17.60;99.90;;;;;;5095854;28;20231;-82
2023/05/23 02:02:59;;;;;;;32.20;20.90;;;17.70;99.90;;;;;;5095199;28;20202;-82
2023/05/23 02:05:31;;;;;;;10.02;2.88;;;17.80;99.90;;;;;;5093185;28;20231;-79
2023/05/23 02:08:02;;;;;;;9.65;1.60;;;18.00;99.90;;;;;;5094198;28;20194;-81
2023/05/23 02:10:33;;;;;;;7.20;2.42;;;17.90;99.90;;;;;;5090877;28;20192;-78
2023/05/23 02:13:04;;;;;;;8.10;1.80;;;18.00;99.90;;;;;;5091409;28;20192;-80
2023/05/23 02:15:37;;;;;;;5.32;1.40;;;18.00;99.90;;;;;;5092967;28;20193;-81
2023/05/23 02:18:08;;;;;;;4.30;1.40;;;18.00;99.90;;;;;;5093771;28;20192;-84
2023/05/23 02:20:39;;;;;;;6.53;2.00;;;18.00;99.90;;;;;;5094961;28;20222;-83
2023/05/23 02:23:10;;;;;;;4.53;1.65;;;18.00;99.90;;;;;;5089665;28;20199;-80
2023/05/23 02:25:42;;;;;;;5.88;1.70;;;18.10;99.90;;;;;;5094331;28;20556;-79
2023/05/23 02:28:13;;;;;;;5.93;1.60;;;18.20;99.90;;;;;;5086305;28;20192;-83
2023/05/23 02:30:46;;;;;;;7.13;1.70;;;18.20;99.90;;;;;;5086992;28;20197;-83
2023/05/23 02:33:18;;;;;;;4.60;1.40;;;18.30;99.90;;;;;;5092078;28;21665;-84
2023/05/23 02:35:50;;;;;;;7.53;1.50;;;18.30;99.90;;;;;;5089755;28;20192;-84
2023/05/23 02:38:21;;;;;;;5.15;1.73;;;18.40;99.90;;;;;;5092887;28;20192;-82
2023/05/23 02:40:52;;;;;;;5.35;1.65;;;18.40;99.90;;;;;;5084003;28;20238;-84
2023/05/23 02:43:23;;;;;;;6.30;1.50;;;18.40;99.90;;;;;;5094151;28;20200;-86
2023/05/23 02:45:56;;;;;;;4.32;1.83;;;18.40;99.90;;;;;;5095860;28;20224;-83
2023/05/23 02:48:28;;;;;;;16.00;6.60;;;18.50;99.90;;;;;;5095375;28;20223;-85
2023/05/23 02:50:59;;;;;;;9.85;6.88;;;18.50;99.90;;;;;;5091932;28;20211;-84
2023/05/23 02:53:30;;;;;;;5.53;1.60;;;18.50;99.90;;;;;;5092291;28;20200;-79
2023/05/23 02:56:01;;;;;;;6.68;2.25;;;18.60;99.90;;;;;;5081681;28;20196;-85
2023/05/23 02:58:34;;;;;;;3.50;1.58;;;18.70;99.90;;;;;;5093743;28;20204;-83
2023/05/23 03:01:07;;;;;;;5.03;1.35;;;18.70;99.90;;;;;;5090769;28;20697;-82
2023/05/23 03:03:38;;;;;;;7.78;1.80;;;18.80;99.90;;;;;;5092619;28;20228;-83
2023/05/23 03:06:13;;;;;;;5.97;2.00;;;18.80;99.90;;;;;;5090906;28;20192;-83
2023/05/23 03:08:44;;;;;;;10.05;2.38;;;18.80;99.90;;;;;;5079435;28;20204;-84
2023/05/23 03:11:16;;;;;;;6.68;1.65;;;18.80;99.90;;;;;;5093365;28;20192;-85
2023/05/23 03:13:47;;;;;;;6.78;1.70;;;18.80;99.90;;;;;;5090792;28;20188;-82
2023/05/23 03:16:20;;;;;;;3.78;1.42;;;18.80;99.90;;;;;;5095483;28;20199;-82
2023/05/23 03:18:51;;;;;;;4.95;1.45;;;18.80;99.90;;;;;;5095291;28;20196;-82
2023/05/23 03:21:22;;;;;;;4.97;1.52;;;18.80;99.90;;;;;;5089487;28;20223;-83
2023/05/23 03:23:53;;;;;;;4.07;1.40;;;18.70;99.90;;;;;;5074865;28;20200;-80
2023/05/23 03:26:24;;;;;;;7.93;1.60;;;18.80;99.90;;;;;;5075053;28;20188;-82
2023/05/23 03:28:55;;;;;;;4.85;1.40;;;18.80;99.90;;;;;;5074869;28;20641;-81
2023/05/23 03:31:28;;;;;;;4.35;1.30;;;18.80;99.90;;;;;;5094074;28;20216;-82
2023/05/23 03:33:59;;;;;;;4.45;1.60;;;18.90;99.90;;;;;;5095178;28;20188;-85
2023/05/23 03:36:32;;;;;;;6.97;1.63;;;19.00;99.90;;;;;;5095173;28;20193;-85
2023/05/23 03:39:03;;;;;;;6.57;1.70;;;19.00;99.90;;;;;;5094666;28;20192;-83
2023/05/23 03:41:34;;;;;;;5.43;1.70;;;19.00;99.90;;;;;;5094445;28;20662;-82
2023/05/23 03:44:05;;;;;;;5.68;1.50;;;19.00;99.90;;;;;;5093624;28;20184;-83
2023/05/23 03:46:39;;;;;;;6.03;1.67;;;18.90;99.90;;;;;;5093595;28;20216;-82
2023/05/23 03:49:10;;;;;;;6.85;2.30;;;18.90;99.90;;;;;;5095195;28;20188;-82
2023/05/23 03:51:41;;;;;;;5.47;1.70;;;18.90;99.90;;;;;;5094223;28;20196;-81
2023/05/23 03:54:12;;;;;;;4.00;1.40;;;18.90;99.90;;;;;;5094749;28;20554;-83
2023/05/23 03:56:43;;;;;;;6.07;1.58;;;18.90;99.90;;;;;;5094360;28;20199;-82
2023/05/23 03:59:14;;;;;;;5.10;1.27;;;18.80;99.90;;;;;;5094575;28;20184;-83
2023/05/23 04:01:47;;;;;;;4.80;1.10;;;18.80;99.90;;;;;;5094361;28;20555;-82
2023/05/23 04:04:19;;;;;;;7.47;1.70;;;18.80;99.90;;;;;;5093326;28;20228;-85
2023/05/23 04:06:50;;;;;;;5.82;1.60;;;18.90;99.90;;;;;;5093951;28;20196;-82
2023/05/23 04:09:22;;;;;;;5.43;1.35;;;18.90;99.90;;;;;;5094504;28;20544;-85
2023/05/23 04:11:53;;;;;;;4.80;1.23;;;19.00;99.90;;;;;;5094205;28;20247;-83
2023/05/23 04:14:25;;;;;;;5.30;1.48;;;19.00;99.90;;;;;;5094325;28;20189;-85
2023/05/23 04:16:59;;;;;;;3.70;1.30;;;19.00;99.90;;;;;;5094413;28;20204;-83
2023/05/23 04:19:30;;;;;;;2.78;1.30;;;19.00;99.90;;;;;;5091705;28;20667;-83
2023/05/23 04:22:01;;;;;;;3.55;1.40;;;19.00;99.90;;;;;;5092540;28;20218;-84
2023/05/23 04:24:33;;;;;;;4.70;1.20;;;19.00;99.90;;;;;;5094231;28;20188;-86
2023/05/23 04:27:04;;;;;;;5.93;1.27;;;18.90;99.90;;;;;;5093541;28;20218;-83
2023/05/23 04:29:35;;;;;;;7.55;1.50;;;19.00;99.90;;;;;;5092300;28;20200;-83
2023/05/23 04:32:08;;;;;;;5.38;1.40;;;18.90;99.90;;;;;;5093478;28;20198;-83
2023/05/23 04:34:40;;;;;;;2.50;1.23;;;18.90;99.90;;;;;;5093130;28;20205;-83
2023/05/23 04:37:11;;;;;;;5.13;1.38;;;18.90;99.90;;;;;;5093394;28;20287;-82
2023/05/23 04:39:42;;;;;;;2.83;1.30;;;18.90;99.90;;;;;;5093130;28;20231;-82
2023/05/23 04:42:13;;;;;;;8.55;1.90;;;18.90;99.90;;;;;;5089534;28;20200;-85
2023/05/23 04:44:44;;;;;;;6.53;1.63;;;18.90;99.90;;;;;;5093710;28;20560;-83
2023/05/23 04:47:17;;;;;;;5.82;1.70;;;18.90;99.90;;;;;;5092591;28;20210;-80
2023/05/23 04:49:49;;;;;;;6.65;1.70;;;18.80;99.90;;;;;;5093357;28;20227;-82
2023/05/23 04:52:20;;;;;;;7.40;1.58;;;18.80;99.90;;;;;;5094033;28;20192;-79
2023/05/23 04:54:52;;;;;;;7.45;1.70;;;18.70;99.90;;;;;;5091828;28;20192;-80
2023/05/23 04:57:23;;;;;;;7.35;1.60;;;18.70;99.90;;;;;;5093312;28;20232;-78
2023/05/23 04:59:55;;;;;;;8.25;1.50;;;18.80;99.90;;;;;;5093597;28;20216;-79
2023/05/23 05:02:33;;;;;;;5.43;1.70;;;18.70;99.90;;;;;;5092261;28;20244;-80
2023/05/23 05:05:05;;;;;;;8.02;2.05;;;18.70;99.90;;;;;;5091979;28;20228;-79
2023/05/23 05:07:36;;;;;;;6.40;1.60;;;18.60;99.90;;;;;;5091924;28;20635;-79
2023/05/23 05:10:10;;;;;;;4.57;1.15;;;18.60;99.90;;;;;;5092675;28;20609;-82
2023/05/23 05:12:41;;;;;;;3.85;1.60;;;18.50;99.90;;;;;;5090309;28;20205;-82
2023/05/23 05:15:13;;;;;;;7.53;1.70;;;18.50;99.90;;;;;;5093371;28;20188;-80
2023/05/23 05:17:46;;;;;;;6.20;1.63;;;18.40;99.90;;;;;;5091534;28;20582;-80
2023/05/23 05:20:17;;;;;;;5.03;1.58;;;18.30;99.90;;;;;;5093070;28;20242;-78
2023/05/23 05:22:49;;;;;;;6.05;1.30;;;18.30;99.90;;;;;;5091397;28;20788;-79
2023/05/23 05:25:20;;;;;;;4.78;1.40;;;18.20;99.90;;;;;;5092390;28;20204;-78
2023/05/23 05:27:51;;;;;;;9.18;1.75;;;18.20;99.90;;;;;;5093591;28;20635;-79
2023/05/23 05:30:22;;;;;;;9.90;1.92;;;18.20;99.90;;;;;;5093392;28;20551;-81
2023/05/23 05:32:58;;;;;;;5.45;1.50;;;18.10;99.90;;;;;;5091221;28;20192;-80
2023/05/23 05:35:29;;;;;;;6.97;1.70;;;18.10;99.90;;;;;;5097221;28;20218;-78
2023/05/23 05:38:00;;;;;;;11.45;1.98;;;18.00;99.90;;;;;;5096620;28;20200;-81
2023/05/23 05:40:31;;;;;;;5.78;1.58;;;17.90;99.90;;;;;;5096196;28;20230;-83
2023/05/23 05:43:02;;;;;;;6.38;1.73;;;17.90;99.90;;;;;;5091297;28;20583;-84
2023/05/23 05:45:33;;;;;;;6.05;1.60;;;17.90;99.90;;;;;;5096209;28;20220;-83
2023/05/23 05:48:06;;;;;;;5.75;1.48;;;17.90;99.90;;;;;;5097097;28;20211;-81
2023/05/23 05:50:37;;;;;;;4.68;1.65;;;17.80;99.90;;;;;;5095990;28;20202;-80
2023/05/23 05:53:08;;;;;;;4.40;1.40;;;17.80;99.90;;;;;;5096444;28;20188;-84
2023/05/23 05:55:39;;;;;;;6.55;1.80;;;17.80;99.90;;;;;;5097128;28;20192;-84
2023/05/23 05:58:10;;;;;;;6.78;1.60;;;17.70;99.90;;;;;;5097055;28;20189;-84
2023/05/23 06:00:42;;;;;;;6.15;1.40;;;17.60;99.90;;;;;;5094176;28;20586;-84
2023/05/23 06:03:15;;;;;;;7.95;1.85;;;17.60;99.90;;;;;;5095009;28;20204;-80
2023/05/23 06:05:47;;;;;;;6.75;1.52;;;17.60;99.90;;;;;;5090595;28;20200;-84
2023/05/23 06:08:18;;;;;;;7.72;2.00;;;17.50;99.90;;;;;;5095300;28;20189;-85
2023/05/23 06:10:49;;;;;;;4.35;1.60;;;17.50;99.90;;;;;;5096467;28;20189;-83
2023/05/23 06:13:20;;;;;;;6.25;1.67;;;17.50;99.90;;;;;;5095451;28;20555;-84
2023/05/23 06:15:51;;;;;;;5.07;1.52;;;17.40;99.90;;;;;;5088530;28;20185;-84
2023/05/23 06:18:24;;;;;;;6.85;1.80;;;17.30;99.90;;;;;;5076521;28;20237;-84
2023/05/23 06:20:55;;;;;;;7.22;2.00;;;17.30;99.90;;;;;;5091166;28;20215;-83
2023/05/23 06:23:26;;;;;;;9.32;1.90;;;17.30;99.90;;;;;;5096565;28;20189;-80
2023/05/23 06:25:57;;;;;;;8.27;1.70;;;17.20;99.90;;;;;;5096569;28;20267;-79
2023/05/23 06:28:28;;;;;;;7.90;1.70;;;17.20;99.90;;;;;;5096729;28;20184;-78
2023/05/23 06:30:59;;;;;;;7.53;2.10;;;17.10;99.90;;;;;;5095607;28;20568;-85
2023/05/23 06:33:33;;;;;;;5.82;2.00;;;17.10;99.90;;;;;;5096307;28;20192;-81
2023/05/23 06:36:04;;;;;;;6.55;1.77;;;17.00;99.90;;;;;;5096592;28;20195;-80
2023/05/23 06:38:35;;;;;;;4.97;2.05;;;16.90;99.90;;;;;;5096571;28;20188;-84
2023/05/23 06:41:06;;;;;;;7.18;1.90;;;16.90;99.90;;;;;;5096441;28;20298;-83
2023/05/23 06:43:37;;;;;;;8.07;2.47;;;16.90;99.90;;;;;;5096192;28;20199;-85
2023/05/23 06:46:08;;;;;;;7.10;1.80;;;16.80;99.90;;;;;;5094789;28;20224;-83
2023/05/23 06:48:41;;;;;;;4.85;1.40;;;16.70;99.90;;;;;;5089667;28;20224;-78
2023/05/23 06:51:13;;;;;;;5.88;1.75;;;16.60;99.90;;;;;;5075811;28;20189;-84
2023/05/23 06:53:44;;;;;;;8.90;2.00;;;16.60;99.90;;;;;;5083761;28;20661;-81
2023/05/23 06:56:15;;;;;;;8.95;1.90;;;16.50;99.90;;;;;;5095897;28;20224;-85
2023/05/23 06:58:46;;;;;;;5.55;1.70;;;16.40;99.90;;;;;;5095045;28;20188;-79
2023/05/23 07:01:17;;;;;;;6.63;1.85;;;16.30;99.90;;;;;;5090885;28;20694;-82
2023/05/23 07:03:50;;;;;;;8.98;1.70;;;16.30;99.90;;;;;;5092716;28;20243;-83
2023/05/23 07:06:21;;;;;;;8.45;1.73;;;16.20;99.90;;;;;;5094192;28;20656;-83
2023/05/23 07:08:52;;;;;;;3.95;1.40;;;16.20;99.90;;;;;;5095683;28;20566;-84
2023/05/23 07:11:25;;;;;;;4.97;1.65;;;16.10;99.90;;;;;;5091404;28;20193;-85
2023/05/23 07:13:56;;;;;;;7.13;1.80;;;16.10;99.90;;;;;;5075596;28;20200;-84
2023/05/23 07:16:27;;;;;;;5.18;1.55;;;16.00;99.90;;;;;;5075188;28;20200;-84
2023/05/23 07:19:00;;;;;;;6.07;1.90;;;16.00;99.90;;;;;;5092538;28;20692;-83
2023/05/23 07:21:31;;;;;;;4.85;1.70;;;15.90;99.90;;;;;;5094491;28;20220;-79
2023/05/23 07:24:02;;;;;;;5.90;1.60;;;15.90;99.90;;;;;;5078204;28;20223;-83
2023/05/23 07:26:33;;;;;;;5.28;1.70;;;15.80;99.90;;;;;;5085915;28;20204;-82
2023/05/23 07:29:04;;;;;;;6.00;1.85;;;15.80;99.90;;;;;;5093722;28;20197;-83
2023/05/23 07:31:35;;;;;;;7.72;2.08;;;15.70;99.90;;;;;;5094272;28;20192;-84
2023/05/23 07:34:08;;;;;;;7.38;1.83;;;15.60;99.90;;;;;;5089018;28;20188;-85
2023/05/23 07:36:39;;;;;;;5.70;1.70;;;15.60;99.90;;;;;;5087557;28;20196;-82
2023/05/23 07:39:11;;;;;;;6.07;1.77;;;15.50;99.90;;;;;;5094413;28;20192;-84
2023/05/23 07:41:42;;;;;;;5.53;1.85;;;15.50;99.90;;;;;;5095006;28;20227;-85
2023/05/23 07:44:13;;;;;;;7.65;2.10;;;15.40;99.90;;;;;;5089140;28;20695;-82
2023/05/23 07:46:44;;;;;;;6.63;1.83;;;15.30;99.90;;;;;;5089244;28;20183;-84
2023/05/23 07:49:17;;;;;;;6.40;2.05;;;15.30;99.90;;;;;;5094524;28;20192;-82
2023/05/23 07:51:48;;;;;;;7.72;2.03;;;15.20;99.90;;;;;;5094371;28;20210;-82
2023/05/23 07:54:20;;;;;;;8.52;2.60;;;15.20;99.90;;;;;;5090471;28;20238;-82
2023/05/23 07:56:51;;;;;;;9.07;2.78;;;15.10;99.90;;;;;;5088275;28;20216;-79
2023/05/23 07:59:22;;;;;;;6.03;2.10;;;15.10;99.90;;;;;;5074293;28;20185;-80
2023/05/23 08:01:53;;;;;;;7.18;2.22;;;15.00;99.90;;;;;;5075510;28;20238;-81
2023/05/23 08:04:26;;;;;;;7.90;2.25;;;14.90;99.90;;;;;;5090728;28;20232;-78
2023/05/23 08:06:57;;;;;;;8.20;2.53;;;14.80;99.90;;;;;;5091263;28;20199;-80
2023/05/23 08:09:28;;;;;;;5.85;2.38;;;14.80;99.90;;;;;;5091998;28;20655;-82
2023/05/23 08:11:59;;;;;;;5.95;2.30;;;14.70;99.90;;;;;;5091433;28;20210;-82
2023/05/23 08:14:30;;;;;;;7.28;2.40;;;14.70;99.90;;;;;;5083778;28;20192;-84
2023/05/23 08:17:01;;;;;;;8.02;2.60;;;14.60;99.90;;;;;;5080903;28;20311;-81
2023/05/23 08:19:35;;;;;;;10.00;2.90;;;14.60;99.90;;;;;;5093388;28;20199;-83
2023/05/23 08:22:06;;;;;;;7.50;3.05;;;14.50;99.90;;;;;;5091086;28;20208;-83
2023/05/23 08:24:37;;;;;;;8.88;3.30;;;14.50;99.90;;;;;;5092266;28;20184;-80
2023/05/23 08:27:08;;;;;;;8.98;3.53;;;14.40;99.90;;;;;;5093417;28;20199;-79
2023/05/23 08:29:40;;;;;;;8.48;3.90;;;14.40;99.90;;;;;;5092735;28;20210;-79
2023/05/23 08:32:11;;;;;;;9.48;3.88;;;14.40;99.90;;;;;;5092859;28;20200;-78
2023/05/23 08:34:44;;;;;;;10.52;4.05;;;14.40;99.90;;;;;;5092526;28;20192;-80
2023/05/23 08:37:15;;;;;;;11.85;3.70;;;14.40;99.90;;;;;;5093985;28;20195;-78
2023/05/23 08:39:46;;;;;;;8.57;3.40;;;14.30;99.90;;;;;;5092980;28;20655;-78
2023/05/23 08:42:17;;;;;;;8.73;3.45;;;14.30;99.90;;;;;;5091783;28;20222;-78
2023/05/23 08:44:48;;;;;;;9.27;3.40;;;14.30;99.90;;;;;;5087255;28;20714;-79
2023/05/23 08:47:21;;;;;;;14.82;4.03;;;14.20;99.90;;;;;;5092685;28;20218;-80
2023/05/23 08:49:57;;;;;;;12.05;3.97;;;14.20;99.90;;;;;;5092985;28;20188;-81
2023/05/23 08:52:29;;;;;;;7.78;3.55;;;14.10;99.90;;;;;;5092162;28;20200;-83
2023/05/23 08:55:01;;;;;;;12.82;4.00;;;14.00;99.90;;;;;;5093374;28;20195;-79
2023/05/23 08:57:32;;;;;;;13.98;4.68;;;14.00;99.90;;;;;;5091974;28;20196;-78
2023/05/23 09:00:09;;;;;;;16.27;4.18;;;13.90;99.90;;;;;;5092241;28;20192;-80
2023/05/23 09:02:41;;;;;;;13.52;5.03;;;13.90;99.90;;;;;;5091031;28;20207;-80
2023/05/23 09:05:14;;;;;;;12.02;4.45;;;13.90;99.90;;;;;;5090999;28;20236;-79
2023/05/23 09:07:48;;;;;;;13.30;4.80;;;13.80;99.90;;;;;;5090972;28;20200;-80
2023/05/23 09:10:19;;;;;;;12.98;4.93;;;13.80;99.90;;;;;;5090545;28;20633;-79
2023/05/23 09:12:51;;;;;;;15.23;4.97;;;13.70;99.90;;;;;;5090303;28;20651;-80
2023/05/23 09:15:22;;;;;;;19.13;5.80;;;13.70;99.90;;;;;;5089728;28;20196;-79
2023/05/23 09:17:53;;;;;;;13.55;5.15;;;13.70;99.90;;;;;;5086483;28;20204;-79
2023/05/23 09:20:26;;;;;;;15.50;5.63;;;13.60;99.90;;;;;;5090912;28;20207;-80
2023/05/23 09:22:58;;;;;;;19.40;6.53;;;13.60;99.90;;;;;;5090447;28;20215;-79
2023/05/23 09:25:29;;;;;;;16.58;6.03;;;13.50;99.90;;;;;;5082401;28;20188;-79
2023/05/23 09:28:01;;;;;;;21.65;7.53;;;13.40;99.90;;;;;;5090358;28;20273;-79
2023/05/23 09:30:35;;;;;;;23.80;8.18;;;13.40;99.90;;;;;;5092767;28;20203;-80
2023/05/23 09:33:06;;;;;;;23.40;7.47;;;13.30;99.90;;;;;;5093241;28;20184;-78
2023/05/23 09:35:46;;;;;;;21.73;7.55;;;13.30;99.90;;;;;;5086142;28;20207;-78
2023/05/23 09:38:17;;;;;;;22.75;7.38;;;13.30;99.90;;;;;;5089509;28;20270;-78
2023/05/23 09:40:49;;;;;;;22.00;7.05;;;13.30;99.90;;;;;;5090325;28;20644;-79
2023/05/23 09:43:20;;;;;;;21.92;7.50;;;13.40;99.90;;;;;;5092014;28;20222;-79
2023/05/23 09:45:51;;;;;;;24.48;7.70;;;13.30;99.90;;;;;;5091618;28;20196;-80
2023/05/23 09:48:29;;;;;;;21.75;7.88;;;13.30;99.90;;;;;;5090696;28;20242;-79
2023/05/23 09:51:05;;;;;;;19.92;6.95;;;13.30;99.90;;;;;;5091873;28;20200;-79
2023/05/23 09:53:36;;;;;;;25.00;7.32;;;13.30;99.90;;;;;;5092943;28;20199;-80
2023/05/23 09:56:10;;;;;;;19.63;6.93;;;13.30;99.90;;;;;;5090574;28;20898;-79
2023/05/23 09:58:42;;;;;;;19.27;6.20;;;13.30;99.90;;;;;;5091949;28;20340;-81
2023/05/23 10:01:14;;;;;;;15.75;5.55;;;13.30;99.90;;;;;;5089697;28;20199;-78
2023/05/23 10:03:53;;;;;;;15.15;5.38;;;13.30;99.90;;;;;;5089950;28;20243;-80
2023/05/23 10:06:29;;;;;;;13.35;6.38;;;13.30;99.90;;;;;;5091663;28;20237;-78
2023/05/23 10:09:04;;;;;;;15.52;5.93;;;13.30;99.90;;;;;;5092408;28;20196;-78
2023/05/23 10:12:12;;;;;;;14.38;5.80;;;13.30;99.90;;;;;;5092240;28;20206;-80
2023/05/23 10:14:50;;;;;;;20.65;6.90;;;13.20;99.90;;;;;;5085431;28;20202;-79
2023/05/23 10:17:23;;;;;;;12.90;5.55;;;13.20;99.90;;;;;;5092583;28;20655;-80
2023/05/23 10:19:59;;;;;;;14.65;5.80;;;13.10;99.90;;;;;;5094422;28;20194;-82
2023/05/23 10:22:33;;;;;;;15.10;6.10;;;13.10;99.90;;;;;;5095388;28;20220;-80
2023/05/23 10:25:05;;;;;;;13.90;6.30;;;13.10;99.90;;;;;;5096183;28;20188;-83
2023/05/23 10:27:36;;;;;;;14.85;5.85;;;13.10;99.90;;;;;;5094681;28;20292;-80
2023/05/23 10:30:08;;;;;;;17.02;6.03;;;13.10;99.90;;;;;;5095837;28;20192;-81
2023/05/23 10:32:43;;;;;;;15.85;5.80;;;13.00;99.90;;;;;;5095456;28;20287;-79
2023/05/23 10:35:21;;;;;;;17.10;6.25;;;13.00;99.90;;;;;;5090475;28;20203;-80
2023/05/23 10:38:02;;;;;;;16.13;5.55;;;13.00;99.90;;;;;;5088174;28;20196;-79
2023/05/23 10:40:45;;;;;;;12.52;5.78;;;13.00;99.90;;;;;;5094862;28;20200;-81
2023/05/23 10:43:24;;;;;;;12.77;6.07;;;12.90;99.90;;;;;;5093280;28;20231;-78
2023/05/23 10:45:55;;;;;;;14.65;6.05;;;12.90;99.90;;;;;;5094471;28;20192;-80
2023/05/23 10:48:36;;;;;;;17.42;6.50;;;12.80;99.90;;;;;;5093490;28;20206;-80
2023/05/23 10:51:08;;;;;;;14.45;6.28;;;12.70;99.90;;;;;;5081504;28;20188;-80
2023/05/23 10:53:42;;;;;;;13.07;6.22;;;12.70;99.90;;;;;;5093851;28;20200;-79
2023/05/23 10:56:22;;;;;;;14.38;5.97;;;12.70;99.90;;;;;;5094114;28;20191;-80
2023/05/23 10:58:57;;;;;;;17.52;6.35;;;12.60;99.90;;;;;;5094314;28;20562;-81
2023/05/23 11:01:28;;;;;;;16.45;6.90;;;12.60;99.90;;;;;;5088648;28;20192;-81
2023/05/23 11:03:59;;;;;;;12.48;5.90;;;12.50;99.90;;;;;;5094148;28;20707;-80
2023/05/23 11:06:37;;;;;;;15.45;6.93;;;12.50;99.90;;;;;;5091880;28;20960;-80
2023/05/23 11:09:15;;;;;;;18.75;7.35;;;12.50;99.90;;;;;;5093045;28;20267;-81
2023/05/23 11:12:03;;;;;;;18.02;7.20;;;12.50;99.90;;;;;;5094331;28;20200;-81
2023/05/23 11:14:55;;;;;;;15.95;6.63;;;12.40;99.90;;;;;;5085830;28;20215;-80
2023/05/23 11:17:36;;;;;;;16.83;7.40;;;12.40;99.90;;;;;;5095220;28;20540;-80
2023/05/23 11:20:08;;;;;;;14.20;6.82;;;12.30;99.90;;;;;;5095162;28;20184;-80
2023/05/23 11:22:41;;;;;;;17.80;6.97;;;12.30;99.90;;;;;;5095083;28;20294;-80
2023/05/23 11:25:15;;;;;;;18.17;7.90;;;12.30;99.90;;;;;;5095303;28;20192;-81
2023/05/23 11:27:51;;;;;;;19.83;7.50;;;12.30;99.90;;;;;;5095161;28;20188;-80
2023/05/23 11:30:22;;;;;;;19.00;7.10;;;12.30;99.90;;;;;;5092943;28;20192;-81
2023/05/23 11:32:55;;;;;;;22.67;7.20;;;12.30;99.90;;;;;;5082712;28;20192;-80
2023/05/23 11:35:26;;;;;;;18.33;7.68;;;12.30;99.90;;;;;;5094932;28;20193;-80
2023/05/23 11:38:00;;;;;;;15.95;7.03;;;12.30;99.90;;;;;;5094465;28;20207;-80
2023/05/23 11:40:34;;;;;;;16.17;6.95;;;12.30;99.90;;;;;;5094142;28;20211;-80
2023/05/23 11:43:10;;;;;;;16.58;6.93;;;12.30;99.90;;;;;;5093823;28;20232;-80
2023/05/23 11:45:41;;;;;;;14.75;6.30;;;12.30;99.90;;;;;;5084602;28;20203;-79
2023/05/23 11:48:13;;;;;;;15.20;6.57;;;12.30;99.90;;;;;;5094086;28;20202;-79
2023/05/23 11:50:49;;;;;;;21.77;7.45;;;12.30;99.90;;;;;;5093577;28;20196;-80
2023/05/23 11:53:21;;;;;;;15.68;7.00;;;12.20;99.90;;;;;;5094074;28;20218;-80
2023/05/23 11:55:57;;;;;;;18.63;7.70;;;12.20;99.90;;;;;;5093745;28;20192;-81
2023/05/23 11:58:31;;;;;;;16.10;6.75;;;12.20;99.90;;;;;;5093872;28;20227;-80
2023/05/23 12:01:05;;;;;;;17.27;7.00;;;12.10;99.90;;;;;;5093694;28;20198;-80
2023/05/23 12:03:37;;;;;;;16.20;7.05;;;12.10;99.90;;;;;;5091664;28;20231;-80
2023/05/23 12:06:08;;;;;;;15.75;7.28;;;12.10;99.90;;;;;;5083122;28;20567;-80
2023/05/23 12:08:39;;;;;;;15.52;6.78;;;12.10;99.90;;;;;;5087836;28;20196;-81
2023/05/23 12:11:12;;;;;;;18.60;7.50;;;12.00;99.90;;;;;;5090579;28;20201;-80
2023/05/23 12:13:44;;;;;;;16.13;7.03;;;11.90;99.90;;;;;;5093523;28;20600;-79
2023/05/23 12:16:17;;;;;;;17.75;7.03;;;11.90;99.90;;;;;;5094245;28;20393;-79
2023/05/23 12:18:48;;;;;;;15.25;6.65;;;11.80;99.90;;;;;;5093814;28;20552;-79
2023/05/23 12:21:19;;;;;;;15.55;6.82;;;11.80;99.90;;;;;;5094221;28;20189;-79
2023/05/23 12:23:50;;;;;;;18.42;7.13;;;11.70;99.90;;;;;;5094287;28;20293;-80
2023/05/23 12:26:23;;;;;;;13.75;6.47;;;11.70;99.90;;;;;;5094036;28;20206;-79
2023/05/23 12:28:54;;;;;;;16.38;6.75;;;11.70;99.90;;;;;;5093939;28;20196;-80
2023/05/23 12:31:27;;;;;;;14.65;6.70;;;11.60;99.90;;;;;;5094111;28;20192;-80
2023/05/23 12:33:59;;;;;;;14.10;6.90;;;11.60;99.90;;;;;;5092741;28;20528;-80
2023/05/23 12:36:31;;;;;;;21.73;7.80;;;11.70;99.90;;;;;;5093371;28;20199;-80
2023/05/23 12:39:08;;;;;;;14.30;7.70;;;11.70;99.90;;;;;;5093231;28;20199;-80
2023/05/23 12:41:45;;;;;;;14.48;7.40;;;11.60;99.90;;;;;;5091996;28;20199;-79
2023/05/23 12:44:19;;;;;;;16.10;7.95;;;11.60;99.90;;;;;;5090983;28;20292;-80
2023/05/23 12:46:50;;;;;;;15.90;7.95;;;11.60;99.90;;;;;;5093693;28;20200;-79
2023/05/23 12:49:21;;;;;;;13.27;7.93;;;11.60;99.90;;;;;;5092394;28;20196;-80
2023/05/23 12:51:52;;;;;;;19.73;9.00;;;11.60;99.90;;;;;;5091941;28;20200;-80
2023/05/23 12:54:23;;;;;;;18.67;8.90;;;11.60;99.90;;;;;;5091650;28;20211;-80
2023/05/23 12:56:56;;;;;;;17.35;8.85;;;11.60;99.90;;;;;;5092900;28;20192;-80
2023/05/23 12:59:28;;;;;;;19.17;8.30;;;11.60;99.90;;;;;;5093432;28;20196;-80
2023/05/23 13:02:00;;;;;;;18.27;9.05;;;11.60;99.90;;;;;;5092730;28;20188;-80
2023/05/23 13:04:31;;;;;;;15.88;8.40;;;11.60;99.90;;;;;;5091698;28;20229;-80
2023/05/23 13:07:02;;;;;;;22.75;8.45;;;11.60;99.90;;;;;;5092748;28;20631;-80
2023/05/23 13:09:33;;;;;;;15.43;8.30;;;11.60;99.90;;;;;;5093058;28;20202;-80
2023/05/23 13:12:06;;;;;;;23.58;8.60;;;11.60;99.90;;;;;;5092342;28;20192;-79